sensor_id;sensor_type;location;lat;lon;timestamp;P1;durP1;ratioP1;P2;durP2;ratioP2
76065;SDS011;64763;48.928;8.474;2023-11-19T00:02:12;0.70;;;0.60;;
76065;SDS011;64763;48.928;8.474;2023-11-19T00:04:38;1.17;;;0.82;;
76065;SDS011;64763;48.928;8.474;2023-11-19T00:07:06;1.17;;;0.85;;
76065;SDS011;64763;48.928;8.474;2023-11-19T00:09:36;0.45;;;0.45;;
76065;SDS011;64763;48.928;8.474;2023-11-19T00:12:03;1.08;;;0.75;;
76065;SDS011;64763;48.928;8.474;2023-11-19T00:14:29;2.20;;;0.77;;
76065;SDS011;64763;48.928;8.474;2023-11-19T00:16:54;2.25;;;0.63;;
76065;SDS011;64763;48.928;8.474;2023-11-19T00:19:20;0.65;;;0.57;;
76065;SDS011;64763;48.928;8.474;2023-11-19T00:21:46;0.70;;;0.70;;
76065;SDS011;64763;48.928;8.474;2023-11-19T00:24:11;0.68;;;0.68;;
76065;SDS011;64763;48.928;8.474;2023-11-19T00:26:37;0.63;;;0.55;;
76065;SDS011;64763;48.928;8.474;2023-11-19T00:29:03;0.63;;;0.57;;
76065;SDS011;64763;48.928;8.474;2023-11-19T00:31:29;0.95;;;0.70;;
76065;SDS011;64763;48.928;8.474;2023-11-19T00:33:54;1.00;;;0.70;;
76065;SDS011;64763;48.928;8.474;2023-11-19T00:36:19;0.90;;;0.63;;
76065;SDS011;64763;48.928;8.474;2023-11-19T00:38:45;0.68;;;0.65;;
76065;SDS011;64763;48.928;8.474;2023-11-19T00:41:10;0.30;;;0.30;;
76065;SDS011;64763;48.928;8.474;2023-11-19T00:43:36;0.38;;;0.32;;
76065;SDS011;64763;48.928;8.474;2023-11-19T00:46:01;1.25;;;0.63;;
76065;SDS011;64763;48.928;8.474;2023-11-19T00:48:28;0.43;;;0.43;;
76065;SDS011;64763;48.928;8.474;2023-11-19T00:50:56;0.47;;;0.43;;
76065;SDS011;64763;48.928;8.474;2023-11-19T00:53:22;0.65;;;0.65;;
76065;SDS011;64763;48.928;8.474;2023-11-19T00:55:47;0.82;;;0.50;;
76065;SDS011;64763;48.928;8.474;2023-11-19T00:58:12;2.97;;;0.73;;
76065;SDS011;64763;48.928;8.474;2023-11-19T01:00:38;2.97;;;0.50;;
76065;SDS011;64763;48.928;8.474;2023-11-19T01:03:03;0.40;;;0.40;;
76065;SDS011;64763;48.928;8.474;2023-11-19T01:05:28;0.43;;;0.43;;
76065;SDS011;64763;48.928;8.474;2023-11-19T01:07:54;0.52;;;0.47;;
76065;SDS011;64763;48.928;8.474;2023-11-19T01:10:19;0.93;;;0.70;;
76065;SDS011;64763;48.928;8.474;2023-11-19T01:12:45;1.73;;;0.70;;
76065;SDS011;64763;48.928;8.474;2023-11-19T01:15:11;0.70;;;0.70;;
76065;SDS011;64763;48.928;8.474;2023-11-19T01:17:37;0.60;;;0.40;;
76065;SDS011;64763;48.928;8.474;2023-11-19T01:20:03;0.45;;;0.45;;
76065;SDS011;64763;48.928;8.474;2023-11-19T01:22:31;0.32;;;0.32;;
76065;SDS011;64763;48.928;8.474;2023-11-19T01:24:57;0.50;;;0.50;;
76065;SDS011;64763;48.928;8.474;2023-11-19T01:27:23;0.63;;;0.63;;
76065;SDS011;64763;48.928;8.474;2023-11-19T01:29:48;0.88;;;0.63;;
76065;SDS011;64763;48.928;8.474;2023-11-19T01:32:14;1.50;;;0.70;;
76065;SDS011;64763;48.928;8.474;2023-11-19T01:34:40;0.82;;;0.63;;
76065;SDS011;64763;48.928;8.474;2023-11-19T01:37:05;0.52;;;0.52;;
76065;SDS011;64763;48.928;8.474;2023-11-19T01:39:31;0.35;;;0.35;;
76065;SDS011;64763;48.928;8.474;2023-11-19T01:41:56;1.50;;;0.70;;
76065;SDS011;64763;48.928;8.474;2023-11-19T01:44:21;1.13;;;0.50;;
76065;SDS011;64763;48.928;8.474;2023-11-19T01:46:47;1.35;;;0.65;;
76065;SDS011;64763;48.928;8.474;2023-11-19T01:49:14;0.55;;;0.52;;
76065;SDS011;64763;48.928;8.474;2023-11-19T01:51:40;1.10;;;0.90;;
76065;SDS011;64763;48.928;8.474;2023-11-19T01:54:06;1.15;;;0.80;;
76065;SDS011;64763;48.928;8.474;2023-11-19T01:56:32;0.40;;;0.40;;
76065;SDS011;64763;48.928;8.474;2023-11-19T01:58:58;0.52;;;0.43;;
76065;SDS011;64763;48.928;8.474;2023-11-19T02:01:24;1.55;;;0.50;;
76065;SDS011;64763;48.928;8.474;2023-11-19T02:03:49;1.00;;;0.73;;
76065;SDS011;64763;48.928;8.474;2023-11-19T02:06:15;1.13;;;0.70;;
76065;SDS011;64763;48.928;8.474;2023-11-19T02:08:40;1.17;;;0.73;;
76065;SDS011;64763;48.928;8.474;2023-11-19T02:11:05;0.98;;;0.70;;
76065;SDS011;64763;48.928;8.474;2023-11-19T02:13:34;1.90;;;0.98;;
76065;SDS011;64763;48.928;8.474;2023-11-19T02:16:02;1.08;;;0.80;;
76065;SDS011;64763;48.928;8.474;2023-11-19T02:18:28;1.10;;;0.88;;
76065;SDS011;64763;48.928;8.474;2023-11-19T02:20:57;0.85;;;0.63;;
76065;SDS011;64763;48.928;8.474;2023-11-19T02:23:23;1.55;;;0.70;;
76065;SDS011;64763;48.928;8.474;2023-11-19T02:25:59;0.88;;;0.65;;
76065;SDS011;64763;48.928;8.474;2023-11-19T02:28:27;1.40;;;0.88;;
76065;SDS011;64763;48.928;8.474;2023-11-19T02:30:52;1.08;;;0.70;;
76065;SDS011;64763;48.928;8.474;2023-11-19T02:33:18;1.25;;;0.75;;
76065;SDS011;64763;48.928;8.474;2023-11-19T02:35:43;1.17;;;0.80;;
76065;SDS011;64763;48.928;8.474;2023-11-19T02:38:09;1.00;;;0.80;;
76065;SDS011;64763;48.928;8.474;2023-11-19T02:40:34;3.10;;;0.88;;
76065;SDS011;64763;48.928;8.474;2023-11-19T02:42:59;0.60;;;0.60;;
76065;SDS011;64763;48.928;8.474;2023-11-19T02:45:25;0.82;;;0.60;;
76065;SDS011;64763;48.928;8.474;2023-11-19T02:47:51;0.75;;;0.60;;
76065;SDS011;64763;48.928;8.474;2023-11-19T02:50:17;1.50;;;0.85;;
76065;SDS011;64763;48.928;8.474;2023-11-19T02:52:49;0.65;;;0.55;;
76065;SDS011;64763;48.928;8.474;2023-11-19T02:55:16;1.00;;;0.70;;
76065;SDS011;64763;48.928;8.474;2023-11-19T02:57:42;0.50;;;0.50;;
76065;SDS011;64763;48.928;8.474;2023-11-19T03:00:16;0.85;;;0.70;;
76065;SDS011;64763;48.928;8.474;2023-11-19T03:02:49;1.50;;;1.00;;
76065;SDS011;64763;48.928;8.474;2023-11-19T03:05:25;0.63;;;0.63;;
76065;SDS011;64763;48.928;8.474;2023-11-19T03:07:52;1.92;;;0.57;;
76065;SDS011;64763;48.928;8.474;2023-11-19T03:10:17;0.60;;;0.60;;
76065;SDS011;64763;48.928;8.474;2023-11-19T03:12:44;0.38;;;0.38;;
76065;SDS011;64763;48.928;8.474;2023-11-19T03:15:10;0.63;;;0.60;;
76065;SDS011;64763;48.928;8.474;2023-11-19T03:17:38;1.25;;;0.50;;
76065;SDS011;64763;48.928;8.474;2023-11-19T03:20:07;0.57;;;0.57;;
76065;SDS011;64763;48.928;8.474;2023-11-19T03:22:39;0.70;;;0.50;;
76065;SDS011;64763;48.928;8.474;2023-11-19T03:25:06;0.40;;;0.40;;
76065;SDS011;64763;48.928;8.474;2023-11-19T03:27:33;0.52;;;0.52;;
76065;SDS011;64763;48.928;8.474;2023-11-19T03:30:00;1.35;;;0.40;;
76065;SDS011;64763;48.928;8.474;2023-11-19T03:32:26;1.13;;;0.60;;
76065;SDS011;64763;48.928;8.474;2023-11-19T03:34:52;0.75;;;0.47;;
76065;SDS011;64763;48.928;8.474;2023-11-19T03:37:17;0.47;;;0.32;;
76065;SDS011;64763;48.928;8.474;2023-11-19T03:39:43;0.50;;;0.43;;
76065;SDS011;64763;48.928;8.474;2023-11-19T03:42:08;0.47;;;0.47;;
76065;SDS011;64763;48.928;8.474;2023-11-19T03:44:33;0.82;;;0.63;;
76065;SDS011;64763;48.928;8.474;2023-11-19T03:46:59;0.52;;;0.52;;
76065;SDS011;64763;48.928;8.474;2023-11-19T03:49:24;0.73;;;0.63;;
76065;SDS011;64763;48.928;8.474;2023-11-19T03:51:49;0.68;;;0.55;;
76065;SDS011;64763;48.928;8.474;2023-11-19T03:54:15;0.70;;;0.70;;
76065;SDS011;64763;48.928;8.474;2023-11-19T03:56:40;2.67;;;0.50;;
76065;SDS011;64763;48.928;8.474;2023-11-19T03:59:05;2.33;;;0.63;;
76065;SDS011;64763;48.928;8.474;2023-11-19T04:01:31;0.75;;;0.63;;
76065;SDS011;64763;48.928;8.474;2023-11-19T04:03:56;0.65;;;0.60;;
76065;SDS011;64763;48.928;8.474;2023-11-19T04:06:21;0.77;;;0.63;;
76065;SDS011;64763;48.928;8.474;2023-11-19T04:08:47;1.23;;;0.63;;
76065;SDS011;64763;48.928;8.474;2023-11-19T04:11:12;0.93;;;0.77;;
76065;SDS011;64763;48.928;8.474;2023-11-19T04:13:37;0.65;;;0.60;;
76065;SDS011;64763;48.928;8.474;2023-11-19T04:16:03;2.58;;;0.70;;
76065;SDS011;64763;48.928;8.474;2023-11-19T04:18:29;1.33;;;0.70;;
76065;SDS011;64763;48.928;8.474;2023-11-19T04:20:55;0.82;;;0.60;;
76065;SDS011;64763;48.928;8.474;2023-11-19T04:23:20;0.85;;;0.52;;
76065;SDS011;64763;48.928;8.474;2023-11-19T04:25:45;0.80;;;0.70;;
76065;SDS011;64763;48.928;8.474;2023-11-19T04:28:11;0.52;;;0.47;;
76065;SDS011;64763;48.928;8.474;2023-11-19T04:30:36;0.28;;;0.28;;
76065;SDS011;64763;48.928;8.474;2023-11-19T04:33:02;0.60;;;0.50;;
76065;SDS011;64763;48.928;8.474;2023-11-19T04:35:28;0.70;;;0.65;;
76065;SDS011;64763;48.928;8.474;2023-11-19T04:37:53;0.43;;;0.43;;
76065;SDS011;64763;48.928;8.474;2023-11-19T04:40:18;0.68;;;0.63;;
76065;SDS011;64763;48.928;8.474;2023-11-19T04:42:44;1.02;;;0.80;;
76065;SDS011;64763;48.928;8.474;2023-11-19T04:45:10;0.55;;;0.55;;
76065;SDS011;64763;48.928;8.474;2023-11-19T04:47:35;0.63;;;0.47;;
76065;SDS011;64763;48.928;8.474;2023-11-19T04:50:04;1.60;;;0.77;;
76065;SDS011;64763;48.928;8.474;2023-11-19T04:52:30;1.00;;;0.70;;
76065;SDS011;64763;48.928;8.474;2023-11-19T04:54:55;1.00;;;0.70;;
76065;SDS011;64763;48.928;8.474;2023-11-19T04:57:20;1.33;;;0.85;;
76065;SDS011;64763;48.928;8.474;2023-11-19T04:59:46;0.70;;;0.70;;
76065;SDS011;64763;48.928;8.474;2023-11-19T05:02:11;1.40;;;0.90;;
76065;SDS011;64763;48.928;8.474;2023-11-19T05:04:36;0.70;;;0.70;;
76065;SDS011;64763;48.928;8.474;2023-11-19T05:07:05;0.95;;;0.70;;
76065;SDS011;64763;48.928;8.474;2023-11-19T05:09:30;1.15;;;0.77;;
76065;SDS011;64763;48.928;8.474;2023-11-19T05:11:58;1.25;;;0.70;;
76065;SDS011;64763;48.928;8.474;2023-11-19T05:14:24;1.13;;;0.70;;
76065;SDS011;64763;48.928;8.474;2023-11-19T05:16:49;0.65;;;0.65;;
76065;SDS011;64763;48.928;8.474;2023-11-19T05:19:15;1.00;;;0.90;;
76065;SDS011;64763;48.928;8.474;2023-11-19T05:21:43;0.85;;;0.50;;
76065;SDS011;64763;48.928;8.474;2023-11-19T05:24:08;0.68;;;0.68;;
76065;SDS011;64763;48.928;8.474;2023-11-19T05:26:34;0.65;;;0.52;;
76065;SDS011;64763;48.928;8.474;2023-11-19T05:28:59;0.50;;;0.50;;
76065;SDS011;64763;48.928;8.474;2023-11-19T05:31:24;0.50;;;0.50;;
76065;SDS011;64763;48.928;8.474;2023-11-19T05:33:50;0.95;;;0.60;;
76065;SDS011;64763;48.928;8.474;2023-11-19T05:36:15;1.30;;;0.50;;
76065;SDS011;64763;48.928;8.474;2023-11-19T05:38:41;1.48;;;0.73;;
76065;SDS011;64763;48.928;8.474;2023-11-19T05:41:06;0.73;;;0.57;;
76065;SDS011;64763;48.928;8.474;2023-11-19T05:43:32;0.43;;;0.43;;
76065;SDS011;64763;48.928;8.474;2023-11-19T05:45:57;0.93;;;0.65;;
76065;SDS011;64763;48.928;8.474;2023-11-19T05:48:24;0.60;;;0.40;;
76065;SDS011;64763;48.928;8.474;2023-11-19T05:50:50;1.98;;;0.90;;
76065;SDS011;64763;48.928;8.474;2023-11-19T05:53:16;0.70;;;0.70;;
76065;SDS011;64763;48.928;8.474;2023-11-19T05:55:41;0.63;;;0.40;;
76065;SDS011;64763;48.928;8.474;2023-11-19T05:58:23;0.38;;;0.38;;
76065;SDS011;64763;48.928;8.474;2023-11-19T06:00:50;0.40;;;0.40;;
76065;SDS011;64763;48.928;8.474;2023-11-19T06:03:16;0.68;;;0.55;;
76065;SDS011;64763;48.928;8.474;2023-11-19T06:05:43;0.47;;;0.47;;
76065;SDS011;64763;48.928;8.474;2023-11-19T06:08:09;1.38;;;0.50;;
76065;SDS011;64763;48.928;8.474;2023-11-19T06:10:35;0.38;;;0.38;;
76065;SDS011;64763;48.928;8.474;2023-11-19T06:13:00;0.60;;;0.60;;
76065;SDS011;64763;48.928;8.474;2023-11-19T06:15:29;0.75;;;0.63;;
76065;SDS011;64763;48.928;8.474;2023-11-19T06:17:55;1.58;;;0.77;;
76065;SDS011;64763;48.928;8.474;2023-11-19T06:20:20;0.52;;;0.43;;
76065;SDS011;64763;48.928;8.474;2023-11-19T06:22:46;0.38;;;0.38;;
76065;SDS011;64763;48.928;8.474;2023-11-19T06:25:12;1.17;;;0.43;;
76065;SDS011;64763;48.928;8.474;2023-11-19T06:27:39;0.75;;;0.60;;
76065;SDS011;64763;48.928;8.474;2023-11-19T06:30:08;0.70;;;0.68;;
76065;SDS011;64763;48.928;8.474;2023-11-19T06:32:34;0.77;;;0.40;;
76065;SDS011;64763;48.928;8.474;2023-11-19T06:35:00;0.68;;;0.50;;
76065;SDS011;64763;48.928;8.474;2023-11-19T06:37:25;0.55;;;0.55;;
76065;SDS011;64763;48.928;8.474;2023-11-19T06:39:52;0.82;;;0.73;;
76065;SDS011;64763;48.928;8.474;2023-11-19T06:42:17;0.52;;;0.50;;
76065;SDS011;64763;48.928;8.474;2023-11-19T06:44:43;0.45;;;0.45;;
76065;SDS011;64763;48.928;8.474;2023-11-19T06:47:08;0.40;;;0.40;;
76065;SDS011;64763;48.928;8.474;2023-11-19T06:49:33;0.73;;;0.50;;
76065;SDS011;64763;48.928;8.474;2023-11-19T06:51:59;1.42;;;0.73;;
76065;SDS011;64763;48.928;8.474;2023-11-19T06:54:24;1.00;;;0.45;;
76065;SDS011;64763;48.928;8.474;2023-11-19T06:56:50;0.98;;;0.65;;
76065;SDS011;64763;48.928;8.474;2023-11-19T06:59:15;1.48;;;0.57;;
76065;SDS011;64763;48.928;8.474;2023-11-19T07:01:41;2.40;;;0.60;;
76065;SDS011;64763;48.928;8.474;2023-11-19T07:04:10;2.58;;;0.82;;
76065;SDS011;64763;48.928;8.474;2023-11-19T07:06:36;0.75;;;0.52;;
76065;SDS011;64763;48.928;8.474;2023-11-19T07:09:02;1.05;;;0.70;;
76065;SDS011;64763;48.928;8.474;2023-11-19T07:11:39;0.93;;;0.65;;
76065;SDS011;64763;48.928;8.474;2023-11-19T07:14:06;0.70;;;0.70;;
76065;SDS011;64763;48.928;8.474;2023-11-19T07:16:32;1.15;;;0.60;;
76065;SDS011;64763;48.928;8.474;2023-11-19T07:18:59;0.47;;;0.40;;
76065;SDS011;64763;48.928;8.474;2023-11-19T07:21:25;1.17;;;0.82;;
76065;SDS011;64763;48.928;8.474;2023-11-19T07:23:53;0.82;;;0.70;;
76065;SDS011;64763;48.928;8.474;2023-11-19T07:26:18;0.60;;;0.60;;
76065;SDS011;64763;48.928;8.474;2023-11-19T07:28:44;0.40;;;0.40;;
76065;SDS011;64763;48.928;8.474;2023-11-19T07:31:10;0.47;;;0.45;;
76065;SDS011;64763;48.928;8.474;2023-11-19T07:33:35;0.75;;;0.75;;
76065;SDS011;64763;48.928;8.474;2023-11-19T07:36:01;1.40;;;0.95;;
76065;SDS011;64763;48.928;8.474;2023-11-19T07:38:26;2.28;;;0.80;;
76065;SDS011;64763;48.928;8.474;2023-11-19T07:40:51;0.68;;;0.52;;
76065;SDS011;64763;48.928;8.474;2023-11-19T07:43:17;0.98;;;0.63;;
76065;SDS011;64763;48.928;8.474;2023-11-19T07:45:42;2.33;;;0.88;;
76065;SDS011;64763;48.928;8.474;2023-11-19T07:48:09;1.02;;;0.50;;
76065;SDS011;64763;48.928;8.474;2023-11-19T07:50:36;1.17;;;0.47;;
76065;SDS011;64763;48.928;8.474;2023-11-19T07:53:01;2.20;;;1.00;;
76065;SDS011;64763;48.928;8.474;2023-11-19T07:55:29;1.42;;;0.68;;
76065;SDS011;64763;48.928;8.474;2023-11-19T07:57:54;1.38;;;0.90;;
76065;SDS011;64763;48.928;8.474;2023-11-19T08:00:20;0.50;;;0.38;;
76065;SDS011;64763;48.928;8.474;2023-11-19T08:02:45;1.08;;;0.70;;
76065;SDS011;64763;48.928;8.474;2023-11-19T08:05:10;0.80;;;0.50;;
76065;SDS011;64763;48.928;8.474;2023-11-19T08:07:37;0.55;;;0.50;;
76065;SDS011;64763;48.928;8.474;2023-11-19T08:10:02;1.48;;;0.73;;
76065;SDS011;64763;48.928;8.474;2023-11-19T08:12:30;0.77;;;0.63;;
76065;SDS011;64763;48.928;8.474;2023-11-19T08:14:55;1.00;;;0.70;;
76065;SDS011;64763;48.928;8.474;2023-11-19T08:17:21;0.77;;;0.73;;
76065;SDS011;64763;48.928;8.474;2023-11-19T08:19:48;0.65;;;0.65;;
76065;SDS011;64763;48.928;8.474;2023-11-19T08:22:13;0.47;;;0.47;;
76065;SDS011;64763;48.928;8.474;2023-11-19T08:24:38;1.00;;;0.90;;
76065;SDS011;64763;48.928;8.474;2023-11-19T08:27:04;0.57;;;0.55;;
76065;SDS011;64763;48.928;8.474;2023-11-19T08:29:29;1.75;;;0.70;;
76065;SDS011;64763;48.928;8.474;2023-11-19T08:31:55;2.17;;;0.93;;
76065;SDS011;64763;48.928;8.474;2023-11-19T08:34:20;0.93;;;0.65;;
76065;SDS011;64763;48.928;8.474;2023-11-19T08:36:45;0.93;;;0.77;;
76065;SDS011;64763;48.928;8.474;2023-11-19T08:39:11;4.03;;;0.82;;
76065;SDS011;64763;48.928;8.474;2023-11-19T08:41:36;1.42;;;0.70;;
76065;SDS011;64763;48.928;8.474;2023-11-19T08:44:03;1.05;;;0.70;;
76065;SDS011;64763;48.928;8.474;2023-11-19T08:46:28;1.70;;;0.70;;
76065;SDS011;64763;48.928;8.474;2023-11-19T08:48:54;1.27;;;0.77;;
76065;SDS011;64763;48.928;8.474;2023-11-19T08:51:22;1.15;;;0.73;;
76065;SDS011;64763;48.928;8.474;2023-11-19T08:53:48;0.75;;;0.73;;
76065;SDS011;64763;48.928;8.474;2023-11-19T08:56:13;1.50;;;1.10;;
76065;SDS011;64763;48.928;8.474;2023-11-19T08:58:39;3.00;;;1.20;;
76065;SDS011;64763;48.928;8.474;2023-11-19T09:01:05;0.50;;;0.50;;
76065;SDS011;64763;48.928;8.474;2023-11-19T09:03:31;0.95;;;0.50;;
76065;SDS011;64763;48.928;8.474;2023-11-19T09:06:00;1.50;;;0.90;;
76065;SDS011;64763;48.928;8.474;2023-11-19T09:08:25;0.82;;;0.60;;
76065;SDS011;64763;48.928;8.474;2023-11-19T09:10:50;1.05;;;0.80;;
76065;SDS011;64763;48.928;8.474;2023-11-19T09:13:16;0.98;;;0.70;;
76065;SDS011;64763;48.928;8.474;2023-11-19T09:15:41;0.60;;;0.60;;
76065;SDS011;64763;48.928;8.474;2023-11-19T09:18:07;0.82;;;0.73;;
76065;SDS011;64763;48.928;8.474;2023-11-19T09:20:32;3.35;;;0.90;;
76065;SDS011;64763;48.928;8.474;2023-11-19T09:23:03;0.68;;;0.60;;
76065;SDS011;64763;48.928;8.474;2023-11-19T09:25:28;2.53;;;0.98;;
76065;SDS011;64763;48.928;8.474;2023-11-19T09:27:54;2.83;;;1.00;;
76065;SDS011;64763;48.928;8.474;2023-11-19T09:30:19;1.05;;;0.65;;
76065;SDS011;64763;48.928;8.474;2023-11-19T09:32:45;1.73;;;0.90;;
76065;SDS011;64763;48.928;8.474;2023-11-19T09:35:10;1.70;;;0.88;;
76065;SDS011;64763;48.928;8.474;2023-11-19T09:37:38;3.03;;;1.23;;
76065;SDS011;64763;48.928;8.474;2023-11-19T09:40:04;1.52;;;1.10;;
76065;SDS011;64763;48.928;8.474;2023-11-19T09:42:31;1.55;;;1.08;;
76065;SDS011;64763;48.928;8.474;2023-11-19T09:45:06;0.60;;;0.60;;
76065;SDS011;64763;48.928;8.474;2023-11-19T09:47:37;1.15;;;0.85;;
76065;SDS011;64763;48.928;8.474;2023-11-19T09:50:03;1.42;;;0.90;;
76065;SDS011;64763;48.928;8.474;2023-11-19T09:52:30;1.75;;;0.80;;
76065;SDS011;64763;48.928;8.474;2023-11-19T09:54:55;1.50;;;1.10;;
76065;SDS011;64763;48.928;8.474;2023-11-19T09:57:20;1.17;;;0.80;;
76065;SDS011;64763;48.928;8.474;2023-11-19T09:59:46;1.10;;;0.90;;
76065;SDS011;64763;48.928;8.474;2023-11-19T10:02:12;1.80;;;1.02;;
76065;SDS011;64763;48.928;8.474;2023-11-19T10:04:38;3.10;;;0.82;;
76065;SDS011;64763;48.928;8.474;2023-11-19T10:07:06;0.82;;;0.80;;
76065;SDS011;64763;48.928;8.474;2023-11-19T10:09:31;1.30;;;0.82;;
76065;SDS011;64763;48.928;8.474;2023-11-19T10:11:56;2.17;;;0.80;;
76065;SDS011;64763;48.928;8.474;2023-11-19T10:14:22;1.00;;;0.63;;
76065;SDS011;64763;48.928;8.474;2023-11-19T10:16:48;1.33;;;0.93;;
76065;SDS011;64763;48.928;8.474;2023-11-19T10:19:19;1.38;;;0.90;;
76065;SDS011;64763;48.928;8.474;2023-11-19T10:21:45;1.17;;;0.90;;
76065;SDS011;64763;48.928;8.474;2023-11-19T10:24:11;2.47;;;0.90;;
76065;SDS011;64763;48.928;8.474;2023-11-19T10:26:36;1.45;;;0.82;;
76065;SDS011;64763;48.928;8.474;2023-11-19T10:29:02;1.40;;;0.80;;
76065;SDS011;64763;48.928;8.474;2023-11-19T10:31:27;1.92;;;0.73;;
76065;SDS011;64763;48.928;8.474;2023-11-19T10:33:53;1.63;;;0.93;;
76065;SDS011;64763;48.928;8.474;2023-11-19T10:36:19;0.68;;;0.65;;
76065;SDS011;64763;48.928;8.474;2023-11-19T10:38:54;1.00;;;0.90;;
76065;SDS011;64763;48.928;8.474;2023-11-19T10:41:29;1.17;;;0.80;;
76065;SDS011;64763;48.928;8.474;2023-11-19T10:43:55;1.02;;;0.88;;
76065;SDS011;64763;48.928;8.474;2023-11-19T10:46:21;2.15;;;0.90;;
76065;SDS011;64763;48.928;8.474;2023-11-19T10:48:48;1.23;;;0.80;;
76065;SDS011;64763;48.928;8.474;2023-11-19T10:51:13;2.03;;;1.00;;
76065;SDS011;64763;48.928;8.474;2023-11-19T10:53:48;4.28;;;1.00;;
76065;SDS011;64763;48.928;8.474;2023-11-19T10:56:15;1.00;;;0.90;;
76065;SDS011;64763;48.928;8.474;2023-11-19T10:58:44;3.17;;;1.02;;
76065;SDS011;64763;48.928;8.474;2023-11-19T11:01:13;1.15;;;0.82;;
76065;SDS011;64763;48.928;8.474;2023-11-19T11:03:43;1.13;;;0.80;;
76065;SDS011;64763;48.928;8.474;2023-11-19T11:06:10;1.48;;;0.88;;
76065;SDS011;64763;48.928;8.474;2023-11-19T11:08:38;2.30;;;0.90;;
76065;SDS011;64763;48.928;8.474;2023-11-19T11:11:04;1.35;;;0.80;;
76065;SDS011;64763;48.928;8.474;2023-11-19T11:13:31;1.30;;;0.90;;
76065;SDS011;64763;48.928;8.474;2023-11-19T11:15:56;2.25;;;0.73;;
76065;SDS011;64763;48.928;8.474;2023-11-19T11:18:23;1.73;;;1.00;;
76065;SDS011;64763;48.928;8.474;2023-11-19T11:20:50;2.03;;;1.00;;
76065;SDS011;64763;48.928;8.474;2023-11-19T11:29:16;2.00;;;1.23;;
76065;SDS011;64763;48.928;8.474;2023-11-19T11:32:03;1.70;;;1.02;;
76065;SDS011;64763;48.928;8.474;2023-11-19T11:34:55;1.05;;;0.80;;
76065;SDS011;64763;48.928;8.474;2023-11-19T11:37:33;1.60;;;1.08;;
76065;SDS011;64763;48.928;8.474;2023-11-19T11:40:02;1.55;;;0.98;;
76065;SDS011;64763;48.928;8.474;2023-11-19T11:42:35;3.05;;;1.10;;
76065;SDS011;64763;48.928;8.474;2023-11-19T11:45:05;0.90;;;0.73;;
76065;SDS011;64763;48.928;8.474;2023-11-19T11:50:12;1.48;;;1.08;;
76065;SDS011;64763;48.928;8.474;2023-11-19T11:55:25;1.20;;;0.80;;
76065;SDS011;64763;48.928;8.474;2023-11-19T11:57:54;2.20;;;0.88;;
76065;SDS011;64763;48.928;8.474;2023-11-19T12:00:27;1.35;;;0.88;;
76065;SDS011;64763;48.928;8.474;2023-11-19T12:02:56;2.97;;;0.95;;
76065;SDS011;64763;48.928;8.474;2023-11-19T12:05:21;1.75;;;1.10;;
76065;SDS011;64763;48.928;8.474;2023-11-19T12:07:57;2.05;;;1.05;;
76065;SDS011;64763;48.928;8.474;2023-11-19T12:10:26;1.40;;;1.05;;
76065;SDS011;64763;48.928;8.474;2023-11-19T12:12:59;1.20;;;0.90;;
76065;SDS011;64763;48.928;8.474;2023-11-19T12:15:25;2.58;;;0.80;;
76065;SDS011;64763;48.928;8.474;2023-11-19T12:17:52;1.80;;;1.10;;
76065;SDS011;64763;48.928;8.474;2023-11-19T12:20:20;4.70;;;1.20;;
76065;SDS011;64763;48.928;8.474;2023-11-19T12:22:46;1.10;;;1.00;;
76065;SDS011;64763;48.928;8.474;2023-11-19T12:25:14;2.30;;;0.85;;
76065;SDS011;64763;48.928;8.474;2023-11-19T12:27:44;1.83;;;0.98;;
76065;SDS011;64763;48.928;8.474;2023-11-19T12:30:10;1.52;;;0.80;;
76065;SDS011;64763;48.928;8.474;2023-11-19T12:32:42;2.35;;;1.08;;
76065;SDS011;64763;48.928;8.474;2023-11-19T12:35:09;1.88;;;1.00;;
76065;SDS011;64763;48.928;8.474;2023-11-19T12:40:19;3.53;;;0.90;;
76065;SDS011;64763;48.928;8.474;2023-11-19T12:42:49;3.25;;;1.10;;
76065;SDS011;64763;48.928;8.474;2023-11-19T12:45:18;2.20;;;1.05;;
76065;SDS011;64763;48.928;8.474;2023-11-19T12:47:45;1.70;;;1.20;;
76065;SDS011;64763;48.928;8.474;2023-11-19T12:50:16;1.92;;;0.90;;
76065;SDS011;64763;48.928;8.474;2023-11-19T12:52:43;2.17;;;1.13;;
76065;SDS011;64763;48.928;8.474;2023-11-19T12:55:27;1.95;;;1.10;;
76065;SDS011;64763;48.928;8.474;2023-11-19T12:57:53;2.50;;;0.93;;
76065;SDS011;64763;48.928;8.474;2023-11-19T13:00:26;2.50;;;1.23;;
76065;SDS011;64763;48.928;8.474;2023-11-19T13:02:53;1.30;;;0.82;;
76065;SDS011;64763;48.928;8.474;2023-11-19T13:08:26;2.63;;;1.25;;
76065;SDS011;64763;48.928;8.474;2023-11-19T13:10:50;1.75;;;0.77;;
76065;SDS011;64763;48.928;8.474;2023-11-19T13:13:16;3.38;;;1.67;;
76065;SDS011;64763;48.928;8.474;2023-11-19T13:15:42;3.13;;;1.27;;
76065;SDS011;64763;48.928;8.474;2023-11-19T13:18:11;2.08;;;1.20;;
76065;SDS011;64763;48.928;8.474;2023-11-19T13:20:36;3.20;;;1.25;;
76065;SDS011;64763;48.928;8.474;2023-11-19T13:23:05;2.20;;;1.00;;
76065;SDS011;64763;48.928;8.474;2023-11-19T13:25:35;2.78;;;1.00;;
76065;SDS011;64763;48.928;8.474;2023-11-19T13:28:00;3.03;;;1.33;;
76065;SDS011;64763;48.928;8.474;2023-11-19T13:30:26;4.03;;;1.00;;
76065;SDS011;64763;48.928;8.474;2023-11-19T13:32:52;1.95;;;0.98;;
76065;SDS011;64763;48.928;8.474;2023-11-19T13:35:19;1.13;;;0.90;;
76065;SDS011;64763;48.928;8.474;2023-11-19T13:37:45;3.75;;;1.02;;
76065;SDS011;64763;48.928;8.474;2023-11-19T13:40:11;3.33;;;1.42;;
76065;SDS011;64763;48.928;8.474;2023-11-19T13:42:43;1.80;;;0.93;;
76065;SDS011;64763;48.928;8.474;2023-11-19T13:45:12;1.08;;;0.77;;
76065;SDS011;64763;48.928;8.474;2023-11-19T13:47:39;2.50;;;1.10;;
76065;SDS011;64763;48.928;8.474;2023-11-19T13:50:07;1.50;;;0.98;;
76065;SDS011;64763;48.928;8.474;2023-11-19T13:52:40;1.15;;;0.88;;
76065;SDS011;64763;48.928;8.474;2023-11-19T13:55:10;2.25;;;0.90;;
76065;SDS011;64763;48.928;8.474;2023-11-19T13:57:36;2.03;;;1.05;;
76065;SDS011;64763;48.928;8.474;2023-11-19T14:00:06;1.20;;;0.90;;
76065;SDS011;64763;48.928;8.474;2023-11-19T14:02:37;2.00;;;0.98;;
76065;SDS011;64763;48.928;8.474;2023-11-19T14:05:06;1.15;;;0.90;;
76065;SDS011;64763;48.928;8.474;2023-11-19T14:07:32;2.30;;;0.80;;
76065;SDS011;64763;48.928;8.474;2023-11-19T14:09:58;1.65;;;0.90;;
76065;SDS011;64763;48.928;8.474;2023-11-19T14:12:23;1.40;;;0.93;;
76065;SDS011;64763;48.928;8.474;2023-11-19T14:14:48;2.08;;;0.85;;
76065;SDS011;64763;48.928;8.474;2023-11-19T14:17:14;1.10;;;1.00;;
76065;SDS011;64763;48.928;8.474;2023-11-19T14:19:40;1.77;;;0.98;;
76065;SDS011;64763;48.928;8.474;2023-11-19T14:22:06;1.75;;;1.02;;
76065;SDS011;64763;48.928;8.474;2023-11-19T14:24:31;1.88;;;1.15;;
76065;SDS011;64763;48.928;8.474;2023-11-19T14:26:57;2.22;;;1.02;;
76065;SDS011;64763;48.928;8.474;2023-11-19T14:29:25;1.35;;;0.93;;
76065;SDS011;64763;48.928;8.474;2023-11-19T14:31:51;3.13;;;1.20;;
76065;SDS011;64763;48.928;8.474;2023-11-19T14:34:17;1.45;;;1.00;;
76065;SDS011;64763;48.928;8.474;2023-11-19T14:36:44;1.38;;;1.10;;
76065;SDS011;64763;48.928;8.474;2023-11-19T14:39:09;1.55;;;1.00;;
76065;SDS011;64763;48.928;8.474;2023-11-19T14:41:35;2.05;;;1.20;;
76065;SDS011;64763;48.928;8.474;2023-11-19T14:44:00;1.27;;;0.88;;
76065;SDS011;64763;48.928;8.474;2023-11-19T14:46:26;1.90;;;1.10;;
76065;SDS011;64763;48.928;8.474;2023-11-19T14:48:52;3.33;;;1.00;;
76065;SDS011;64763;48.928;8.474;2023-11-19T14:51:17;0.82;;;0.65;;
76065;SDS011;64763;48.928;8.474;2023-11-19T14:53:43;4.68;;;1.10;;
76065;SDS011;64763;48.928;8.474;2023-11-19T14:56:11;1.25;;;0.80;;
76065;SDS011;64763;48.928;8.474;2023-11-19T14:58:37;1.80;;;1.00;;
76065;SDS011;64763;48.928;8.474;2023-11-19T15:01:03;2.17;;;0.75;;
76065;SDS011;64763;48.928;8.474;2023-11-19T15:03:29;2.38;;;1.08;;